EmailTwitter


Surface observations / France / LFMK (07635)

Regions: Quebec | Canada | USA | Europe | France | UK | Elsewhere
Station
Display
Info & Location for LFMK (07635) | Help decoding METAR

Weather Conditions observed on 2019/02/19 at 23:00 UTC at CARCASSONNE/SALV, FR (LFMK)

Temperature: 5.0 Celsius.

Dewpoint: 4.0 Celsius.

Relative Humidity: 93%

Winds: East at 6 km/h or 3 knots.

Mean Sea level Pressure: 102.20 kilopascals.

Coded METAR:

LFMK 192300Z AUTO 08003KT 060V120 CAVOK 05/04 Q1022=